sensor_id;sensor_type;location;lat;lon;timestamp;temperature;humidity
10702;DHT22;5402;50.004;8.246;2023-11-21T00:00:43;8.90;99.90
10702;DHT22;5402;50.004;8.246;2023-11-21T00:03:11;8.90;99.90
10702;DHT22;5402;50.004;8.246;2023-11-21T00:05:40;8.90;99.90
10702;DHT22;5402;50.004;8.246;2023-11-21T00:08:07;8.90;99.90
10702;DHT22;5402;50.004;8.246;2023-11-21T00:10:35;8.90;99.90
10702;DHT22;5402;50.004;8.246;2023-11-21T00:13:03;8.90;99.90
10702;DHT22;5402;50.004;8.246;2023-11-21T00:15:30;9.00;99.90
10702;DHT22;5402;50.004;8.246;2023-11-21T00:17:57;8.90;99.90
10702;DHT22;5402;50.004;8.246;2023-11-21T00:20:23;8.90;99.90
10702;DHT22;5402;50.004;8.246;2023-11-21T00:22:50;8.90;99.90
10702;DHT22;5402;50.004;8.246;2023-11-21T00:25:17;8.90;99.90
10702;DHT22;5402;50.004;8.246;2023-11-21T00:27:45;8.90;99.90
10702;DHT22;5402;50.004;8.246;2023-11-21T00:30:13;8.90;99.90
10702;DHT22;5402;50.004;8.246;2023-11-21T00:32:40;8.80;99.90
10702;DHT22;5402;50.004;8.246;2023-11-21T00:35:07;8.90;99.90
10702;DHT22;5402;50.004;8.246;2023-11-21T00:37:34;8.90;99.90
10702;DHT22;5402;50.004;8.246;2023-11-21T00:40:00;8.90;99.90
10702;DHT22;5402;50.004;8.246;2023-11-21T00:42:30;9.00;99.90
10702;DHT22;5402;50.004;8.246;2023-11-21T00:44:58;8.80;99.90
10702;DHT22;5402;50.004;8.246;2023-11-21T00:47:25;8.90;99.90
10702;DHT22;5402;50.004;8.246;2023-11-21T00:49:52;8.90;99.90
10702;DHT22;5402;50.004;8.246;2023-11-21T00:52:19;8.90;99.90
10702;DHT22;5402;50.004;8.246;2023-11-21T00:54:46;8.90;99.90
10702;DHT22;5402;50.004;8.246;2023-11-21T00:57:13;9.00;99.90
10702;DHT22;5402;50.004;8.246;2023-11-21T00:59:40;9.00;99.90
10702;DHT22;5402;50.004;8.246;2023-11-21T01:02:08;9.00;99.90
10702;DHT22;5402;50.004;8.246;2023-11-21T01:04:36;9.10;99.90
10702;DHT22;5402;50.004;8.246;2023-11-21T01:07:03;9.10;99.90
10702;DHT22;5402;50.004;8.246;2023-11-21T01:09:31;9.10;99.90
10702;DHT22;5402;50.004;8.246;2023-11-21T01:11:57;9.20;99.90
10702;DHT22;5402;50.004;8.246;2023-11-21T01:14:25;9.20;99.90
10702;DHT22;5402;50.004;8.246;2023-11-21T01:16:52;9.20;99.90
10702;DHT22;5402;50.004;8.246;2023-11-21T01:19:20;9.20;99.90
10702;DHT22;5402;50.004;8.246;2023-11-21T01:21:47;9.20;99.90
10702;DHT22;5402;50.004;8.246;2023-11-21T01:24:13;9.10;99.90
10702;DHT22;5402;50.004;8.246;2023-11-21T01:26:40;9.10;99.90
10702;DHT22;5402;50.004;8.246;2023-11-21T01:29:07;9.10;99.90
10702;DHT22;5402;50.004;8.246;2023-11-21T01:31:33;9.10;99.90
10702;DHT22;5402;50.004;8.246;2023-11-21T01:34:00;9.20;99.90
10702;DHT22;5402;50.004;8.246;2023-11-21T01:36:33;9.20;99.90
10702;DHT22;5402;50.004;8.246;2023-11-21T01:39:00;9.20;99.90
10702;DHT22;5402;50.004;8.246;2023-11-21T01:41:30;9.20;99.90
10702;DHT22;5402;50.004;8.246;2023-11-21T01:43:56;9.20;99.90
10702;DHT22;5402;50.004;8.246;2023-11-21T01:46:23;9.20;99.90
10702;DHT22;5402;50.004;8.246;2023-11-21T01:48:51;9.20;99.90
10702;DHT22;5402;50.004;8.246;2023-11-21T01:51:20;9.20;99.90
10702;DHT22;5402;50.004;8.246;2023-11-21T01:53:49;9.20;99.90
10702;DHT22;5402;50.004;8.246;2023-11-21T01:56:16;9.20;99.90
10702;DHT22;5402;50.004;8.246;2023-11-21T01:58:43;9.30;99.90
10702;DHT22;5402;50.004;8.246;2023-11-21T02:01:12;9.20;99.90
10702;DHT22;5402;50.004;8.246;2023-11-21T02:03:42;9.30;99.90
10702;DHT22;5402;50.004;8.246;2023-11-21T02:06:09;9.20;99.90
10702;DHT22;5402;50.004;8.246;2023-11-21T02:08:36;9.20;99.90
10702;DHT22;5402;50.004;8.246;2023-11-21T02:11:05;9.20;99.90
10702;DHT22;5402;50.004;8.246;2023-11-21T02:13:32;9.20;99.90
10702;DHT22;5402;50.004;8.246;2023-11-21T02:15:59;9.20;99.90
10702;DHT22;5402;50.004;8.246;2023-11-21T02:18:26;9.20;99.90
10702;DHT22;5402;50.004;8.246;2023-11-21T02:20:55;9.20;99.90
10702;DHT22;5402;50.004;8.246;2023-11-21T02:23:23;9.20;99.90
10702;DHT22;5402;50.004;8.246;2023-11-21T02:25:54;9.20;99.90
10702;DHT22;5402;50.004;8.246;2023-11-21T02:28:21;9.20;99.90
10702;DHT22;5402;50.004;8.246;2023-11-21T02:30:51;9.20;99.90
10702;DHT22;5402;50.004;8.246;2023-11-21T02:33:21;9.20;99.90
10702;DHT22;5402;50.004;8.246;2023-11-21T02:35:48;9.20;99.90
10702;DHT22;5402;50.004;8.246;2023-11-21T02:38:14;9.20;99.90
10702;DHT22;5402;50.004;8.246;2023-11-21T02:40:43;9.10;99.90
10702;DHT22;5402;50.004;8.246;2023-11-21T02:43:10;9.20;99.90
10702;DHT22;5402;50.004;8.246;2023-11-21T02:45:36;9.20;99.90
10702;DHT22;5402;50.004;8.246;2023-11-21T02:48:03;9.20;99.90
10702;DHT22;5402;50.004;8.246;2023-11-21T02:50:31;9.10;99.90
10702;DHT22;5402;50.004;8.246;2023-11-21T02:52:58;9.10;99.90
10702;DHT22;5402;50.004;8.246;2023-11-21T02:55:25;9.10;99.90
10702;DHT22;5402;50.004;8.246;2023-11-21T02:57:53;9.10;99.90
10702;DHT22;5402;50.004;8.246;2023-11-21T03:00:21;9.10;99.90
10702;DHT22;5402;50.004;8.246;2023-11-21T03:02:50;9.10;99.90
10702;DHT22;5402;50.004;8.246;2023-11-21T03:05:16;9.10;99.90
10702;DHT22;5402;50.004;8.246;2023-11-21T03:07:43;9.10;99.90
10702;DHT22;5402;50.004;8.246;2023-11-21T03:10:10;9.20;99.90
10702;DHT22;5402;50.004;8.246;2023-11-21T03:12:37;9.20;99.90
10702;DHT22;5402;50.004;8.246;2023-11-21T03:15:06;9.20;99.90
10702;DHT22;5402;50.004;8.246;2023-11-21T03:17:33;9.20;99.90
10702;DHT22;5402;50.004;8.246;2023-11-21T03:20:00;9.20;99.90
10702;DHT22;5402;50.004;8.246;2023-11-21T03:22:27;9.10;99.90
10702;DHT22;5402;50.004;8.246;2023-11-21T03:24:53;9.10;99.90
10702;DHT22;5402;50.004;8.246;2023-11-21T03:27:20;9.10;99.90
10702;DHT22;5402;50.004;8.246;2023-11-21T03:29:48;9.10;99.90
10702;DHT22;5402;50.004;8.246;2023-11-21T03:32:16;9.10;99.90
10702;DHT22;5402;50.004;8.246;2023-11-21T03:34:54;9.00;99.90
10702;DHT22;5402;50.004;8.246;2023-11-21T03:37:21;9.00;99.90
10702;DHT22;5402;50.004;8.246;2023-11-21T03:39:48;9.00;99.90
10702;DHT22;5402;50.004;8.246;2023-11-21T03:42:15;9.00;99.90
10702;DHT22;5402;50.004;8.246;2023-11-21T03:44:41;9.00;99.90
10702;DHT22;5402;50.004;8.246;2023-11-21T03:47:08;8.90;99.90
10702;DHT22;5402;50.004;8.246;2023-11-21T03:49:37;8.90;99.90
10702;DHT22;5402;50.004;8.246;2023-11-21T03:52:05;8.90;99.90
10702;DHT22;5402;50.004;8.246;2023-11-21T03:54:33;8.80;99.90
10702;DHT22;5402;50.004;8.246;2023-11-21T03:56:59;8.80;99.90
10702;DHT22;5402;50.004;8.246;2023-11-21T03:59:26;8.80;99.90
10702;DHT22;5402;50.004;8.246;2023-11-21T04:01:55;8.90;99.90
10702;DHT22;5402;50.004;8.246;2023-11-21T04:04:22;8.90;99.90
10702;DHT22;5402;50.004;8.246;2023-11-21T04:06:50;8.90;99.90
10702;DHT22;5402;50.004;8.246;2023-11-21T04:09:18;9.00;99.90
10702;DHT22;5402;50.004;8.246;2023-11-21T04:11:45;9.00;99.90
10702;DHT22;5402;50.004;8.246;2023-11-21T04:14:12;9.10;99.90
10702;DHT22;5402;50.004;8.246;2023-11-21T04:16:40;9.10;99.90
10702;DHT22;5402;50.004;8.246;2023-11-21T04:19:07;9.10;99.90
10702;DHT22;5402;50.004;8.246;2023-11-21T04:21:35;9.10;99.90
10702;DHT22;5402;50.004;8.246;2023-11-21T04:24:04;9.20;99.90
10702;DHT22;5402;50.004;8.246;2023-11-21T04:26:31;9.20;99.90
10702;DHT22;5402;50.004;8.246;2023-11-21T04:28:58;9.20;99.90
10702;DHT22;5402;50.004;8.246;2023-11-21T04:31:25;9.10;99.90
10702;DHT22;5402;50.004;8.246;2023-11-21T04:33:52;9.10;99.90
10702;DHT22;5402;50.004;8.246;2023-11-21T04:36:18;9.10;99.90
10702;DHT22;5402;50.004;8.246;2023-11-21T04:38:46;9.10;99.90
10702;DHT22;5402;50.004;8.246;2023-11-21T04:41:14;9.10;99.90
10702;DHT22;5402;50.004;8.246;2023-11-21T04:43:41;9.10;99.90
10702;DHT22;5402;50.004;8.246;2023-11-21T04:46:08;9.10;99.90
10702;DHT22;5402;50.004;8.246;2023-11-21T04:48:35;9.10;99.90
10702;DHT22;5402;50.004;8.246;2023-11-21T04:51:01;9.10;99.90
10702;DHT22;5402;50.004;8.246;2023-11-21T04:53:29;9.00;99.90
10702;DHT22;5402;50.004;8.246;2023-11-21T04:55:56;9.00;99.90
10702;DHT22;5402;50.004;8.246;2023-11-21T04:58:24;9.10;99.90
10702;DHT22;5402;50.004;8.246;2023-11-21T05:00:51;9.00;99.90
10702;DHT22;5402;50.004;8.246;2023-11-21T05:03:18;9.00;99.90
10702;DHT22;5402;50.004;8.246;2023-11-21T05:05:44;9.00;99.90
10702;DHT22;5402;50.004;8.246;2023-11-21T05:08:11;9.00;99.90
10702;DHT22;5402;50.004;8.246;2023-11-21T05:10:38;9.00;99.90
10702;DHT22;5402;50.004;8.246;2023-11-21T05:13:05;9.00;99.90
10702;DHT22;5402;50.004;8.246;2023-11-21T05:15:37;9.00;99.90
10702;DHT22;5402;50.004;8.246;2023-11-21T05:18:04;9.00;99.90
10702;DHT22;5402;50.004;8.246;2023-11-21T05:20:31;9.00;99.90
10702;DHT22;5402;50.004;8.246;2023-11-21T05:22:58;9.10;99.90
10702;DHT22;5402;50.004;8.246;2023-11-21T05:25:25;9.10;99.90
10702;DHT22;5402;50.004;8.246;2023-11-21T05:27:52;9.10;99.90
10702;DHT22;5402;50.004;8.246;2023-11-21T05:30:20;9.10;99.90
10702;DHT22;5402;50.004;8.246;2023-11-21T05:32:48;9.10;99.90
10702;DHT22;5402;50.004;8.246;2023-11-21T05:35:15;9.10;99.90
10702;DHT22;5402;50.004;8.246;2023-11-21T05:37:42;9.10;99.90
10702;DHT22;5402;50.004;8.246;2023-11-21T05:40:09;9.10;99.90
10702;DHT22;5402;50.004;8.246;2023-11-21T05:42:36;9.10;99.90
10702;DHT22;5402;50.004;8.246;2023-11-21T05:45:04;9.10;99.90
10702;DHT22;5402;50.004;8.246;2023-11-21T05:47:36;9.10;99.90
10702;DHT22;5402;50.004;8.246;2023-11-21T05:50:05;9.10;99.90
10702;DHT22;5402;50.004;8.246;2023-11-21T05:52:35;9.10;99.90
10702;DHT22;5402;50.004;8.246;2023-11-21T05:55:03;9.10;99.90
10702;DHT22;5402;50.004;8.246;2023-11-21T05:57:32;9.10;99.90
10702;DHT22;5402;50.004;8.246;2023-11-21T05:59:59;9.00;99.90
10702;DHT22;5402;50.004;8.246;2023-11-21T06:02:26;9.00;99.90
10702;DHT22;5402;50.004;8.246;2023-11-21T06:04:53;9.00;99.90
10702;DHT22;5402;50.004;8.246;2023-11-21T06:07:21;9.00;99.90
10702;DHT22;5402;50.004;8.246;2023-11-21T06:09:48;9.10;99.90
10702;DHT22;5402;50.004;8.246;2023-11-21T06:12:15;9.10;99.90
10702;DHT22;5402;50.004;8.246;2023-11-21T06:14:42;9.10;99.90
10702;DHT22;5402;50.004;8.246;2023-11-21T06:17:09;9.10;99.90
10702;DHT22;5402;50.004;8.246;2023-11-21T06:19:36;9.00;99.90
10702;DHT22;5402;50.004;8.246;2023-11-21T06:22:03;9.10;99.90
10702;DHT22;5402;50.004;8.246;2023-11-21T06:24:31;9.00;99.90
10702;DHT22;5402;50.004;8.246;2023-11-21T06:26:58;9.00;99.90
10702;DHT22;5402;50.004;8.246;2023-11-21T06:29:24;9.00;99.90
10702;DHT22;5402;50.004;8.246;2023-11-21T06:31:52;9.00;99.90
10702;DHT22;5402;50.004;8.246;2023-11-21T06:34:20;9.10;99.90
10702;DHT22;5402;50.004;8.246;2023-11-21T06:36:47;9.10;99.90
10702;DHT22;5402;50.004;8.246;2023-11-21T06:39:14;9.10;99.90
10702;DHT22;5402;50.004;8.246;2023-11-21T06:41:43;9.10;99.90
10702;DHT22;5402;50.004;8.246;2023-11-21T06:44:10;9.10;99.90
10702;DHT22;5402;50.004;8.246;2023-11-21T06:46:37;9.00;99.90
10702;DHT22;5402;50.004;8.246;2023-11-21T06:49:07;9.10;99.90
10702;DHT22;5402;50.004;8.246;2023-11-21T06:51:34;9.00;99.90
10702;DHT22;5402;50.004;8.246;2023-11-21T06:54:01;9.00;99.90
10702;DHT22;5402;50.004;8.246;2023-11-21T06:56:28;9.10;99.90
10702;DHT22;5402;50.004;8.246;2023-11-21T06:58:56;9.10;99.90
10702;DHT22;5402;50.004;8.246;2023-11-21T07:01:22;9.10;99.90
10702;DHT22;5402;50.004;8.246;2023-11-21T07:03:50;9.10;99.90
10702;DHT22;5402;50.004;8.246;2023-11-21T07:06:16;9.10;99.90
10702;DHT22;5402;50.004;8.246;2023-11-21T07:08:43;9.00;99.90
10702;DHT22;5402;50.004;8.246;2023-11-21T07:11:10;9.10;99.90
10702;DHT22;5402;50.004;8.246;2023-11-21T07:13:37;9.10;99.90
10702;DHT22;5402;50.004;8.246;2023-11-21T07:16:06;9.10;99.90
10702;DHT22;5402;50.004;8.246;2023-11-21T07:18:32;9.10;99.90
10702;DHT22;5402;50.004;8.246;2023-11-21T07:20:59;9.10;99.90
10702;DHT22;5402;50.004;8.246;2023-11-21T07:23:26;9.10;99.90
10702;DHT22;5402;50.004;8.246;2023-11-21T07:25:52;9.10;99.90
10702;DHT22;5402;50.004;8.246;2023-11-21T07:28:19;9.10;99.90
10702;DHT22;5402;50.004;8.246;2023-11-21T07:30:46;9.10;99.90
10702;DHT22;5402;50.004;8.246;2023-11-21T07:33:14;9.20;99.90
10702;DHT22;5402;50.004;8.246;2023-11-21T07:35:41;9.20;99.90
10702;DHT22;5402;50.004;8.246;2023-11-21T07:38:08;9.20;99.90
10702;DHT22;5402;50.004;8.246;2023-11-21T07:40:34;9.20;99.90
10702;DHT22;5402;50.004;8.246;2023-11-21T07:43:02;9.20;99.90
10702;DHT22;5402;50.004;8.246;2023-11-21T07:45:29;9.20;99.90
10702;DHT22;5402;50.004;8.246;2023-11-21T07:47:55;9.30;99.90
10702;DHT22;5402;50.004;8.246;2023-11-21T07:50:24;9.30;99.90
10702;DHT22;5402;50.004;8.246;2023-11-21T07:52:52;9.30;99.90
10702;DHT22;5402;50.004;8.246;2023-11-21T07:55:19;9.20;99.90
10702;DHT22;5402;50.004;8.246;2023-11-21T07:57:46;9.30;99.90
10702;DHT22;5402;50.004;8.246;2023-11-21T08:00:13;9.30;99.90
10702;DHT22;5402;50.004;8.246;2023-11-21T08:02:41;9.20;99.90
10702;DHT22;5402;50.004;8.246;2023-11-21T08:05:08;9.30;99.90
10702;DHT22;5402;50.004;8.246;2023-11-21T08:07:37;9.30;99.90
10702;DHT22;5402;50.004;8.246;2023-11-21T08:10:05;9.30;99.90
10702;DHT22;5402;50.004;8.246;2023-11-21T08:12:32;9.30;99.90
10702;DHT22;5402;50.004;8.246;2023-11-21T08:14:59;9.40;99.90
10702;DHT22;5402;50.004;8.246;2023-11-21T08:17:25;9.30;99.90
10702;DHT22;5402;50.004;8.246;2023-11-21T08:19:52;9.30;99.90
10702;DHT22;5402;50.004;8.246;2023-11-21T08:22:19;9.30;99.90
10702;DHT22;5402;50.004;8.246;2023-11-21T08:24:47;9.30;99.90
10702;DHT22;5402;50.004;8.246;2023-11-21T08:27:14;9.50;99.90
10702;DHT22;5402;50.004;8.246;2023-11-21T08:29:41;9.30;99.90
10702;DHT22;5402;50.004;8.246;2023-11-21T08:32:08;9.30;99.90
10702;DHT22;5402;50.004;8.246;2023-11-21T08:34:35;9.30;99.90
10702;DHT22;5402;50.004;8.246;2023-11-21T08:37:02;9.30;99.90
10702;DHT22;5402;50.004;8.246;2023-11-21T08:39:28;9.30;99.90
10702;DHT22;5402;50.004;8.246;2023-11-21T08:41:57;9.30;99.90
10702;DHT22;5402;50.004;8.246;2023-11-21T08:44:24;9.40;99.90
10702;DHT22;5402;50.004;8.246;2023-11-21T08:46:50;9.40;99.90
10702;DHT22;5402;50.004;8.246;2023-11-21T08:49:17;9.40;99.90
10702;DHT22;5402;50.004;8.246;2023-11-21T08:51:44;9.40;99.90
10702;DHT22;5402;50.004;8.246;2023-11-21T08:54:11;9.30;99.90
10702;DHT22;5402;50.004;8.246;2023-11-21T08:56:39;9.40;99.90
10702;DHT22;5402;50.004;8.246;2023-11-21T08:59:07;9.30;99.90
10702;DHT22;5402;50.004;8.246;2023-11-21T09:01:34;9.40;99.90
10702;DHT22;5402;50.004;8.246;2023-11-21T09:04:00;9.40;99.90
10702;DHT22;5402;50.004;8.246;2023-11-21T09:06:27;9.30;99.90
10702;DHT22;5402;50.004;8.246;2023-11-21T09:08:54;9.40;99.90
10702;DHT22;5402;50.004;8.246;2023-11-21T09:11:21;9.40;99.90
10702;DHT22;5402;50.004;8.246;2023-11-21T09:13:52;9.50;99.90
10702;DHT22;5402;50.004;8.246;2023-11-21T09:16:21;9.50;99.90
10702;DHT22;5402;50.004;8.246;2023-11-21T09:18:47;9.40;99.90
10702;DHT22;5402;50.004;8.246;2023-11-21T09:21:14;9.50;99.90
10702;DHT22;5402;50.004;8.246;2023-11-21T09:23:42;9.50;99.90
10702;DHT22;5402;50.004;8.246;2023-11-21T09:26:10;10.20;99.90
10702;DHT22;5402;50.004;8.246;2023-11-21T09:28:37;9.60;99.90
10702;DHT22;5402;50.004;8.246;2023-11-21T09:31:04;9.60;99.90
10702;DHT22;5402;50.004;8.246;2023-11-21T09:33:35;9.60;99.90
10702;DHT22;5402;50.004;8.246;2023-11-21T09:36:04;9.70;99.90
10702;DHT22;5402;50.004;8.246;2023-11-21T09:38:31;9.60;99.90
10702;DHT22;5402;50.004;8.246;2023-11-21T09:40:58;9.60;99.90
10702;DHT22;5402;50.004;8.246;2023-11-21T09:43:27;9.60;99.90
10702;DHT22;5402;50.004;8.246;2023-11-21T09:45:59;9.70;99.90
10702;DHT22;5402;50.004;8.246;2023-11-21T09:48:26;9.70;99.90
10702;DHT22;5402;50.004;8.246;2023-11-21T09:50:55;9.80;99.90
10702;DHT22;5402;50.004;8.246;2023-11-21T09:53:22;9.80;99.90
10702;DHT22;5402;50.004;8.246;2023-11-21T09:55:52;9.80;99.90
10702;DHT22;5402;50.004;8.246;2023-11-21T09:58:20;9.80;99.90
10702;DHT22;5402;50.004;8.246;2023-11-21T10:00:53;9.80;99.90
10702;DHT22;5402;50.004;8.246;2023-11-21T10:03:22;9.70;99.90
10702;DHT22;5402;50.004;8.246;2023-11-21T10:05:50;9.70;99.90
10702;DHT22;5402;50.004;8.246;2023-11-21T10:08:22;9.70;99.90
10702;DHT22;5402;50.004;8.246;2023-11-21T10:10:53;9.70;99.90
10702;DHT22;5402;50.004;8.246;2023-11-21T10:13:21;9.70;99.90
10702;DHT22;5402;50.004;8.246;2023-11-21T10:15:50;9.80;99.90
10702;DHT22;5402;50.004;8.246;2023-11-21T10:18:17;9.80;99.90
10702;DHT22;5402;50.004;8.246;2023-11-21T10:20:45;9.80;99.90
10702;DHT22;5402;50.004;8.246;2023-11-21T10:23:19;9.90;99.90
10702;DHT22;5402;50.004;8.246;2023-11-21T10:25:46;10.00;99.90
10702;DHT22;5402;50.004;8.246;2023-11-21T10:28:14;10.00;99.90
10702;DHT22;5402;50.004;8.246;2023-11-21T10:30:41;10.10;99.90
10702;DHT22;5402;50.004;8.246;2023-11-21T10:33:08;10.20;99.90
10702;DHT22;5402;50.004;8.246;2023-11-21T10:35:44;10.30;99.90
10702;DHT22;5402;50.004;8.246;2023-11-21T10:38:14;10.30;99.90
10702;DHT22;5402;50.004;8.246;2023-11-21T10:40:42;10.20;99.90
10702;DHT22;5402;50.004;8.246;2023-11-21T10:43:10;10.10;99.90
10702;DHT22;5402;50.004;8.246;2023-11-21T10:45:39;10.10;99.90
10702;DHT22;5402;50.004;8.246;2023-11-21T10:48:06;10.10;99.90
10702;DHT22;5402;50.004;8.246;2023-11-21T10:50:34;10.20;99.90
10702;DHT22;5402;50.004;8.246;2023-11-21T10:53:02;10.20;99.90
10702;DHT22;5402;50.004;8.246;2023-11-21T10:55:30;10.20;99.90
10702;DHT22;5402;50.004;8.246;2023-11-21T10:58:01;10.20;99.90
10702;DHT22;5402;50.004;8.246;2023-11-21T11:00:31;10.10;99.90
10702;DHT22;5402;50.004;8.246;2023-11-21T11:02:58;10.30;99.90
10702;DHT22;5402;50.004;8.246;2023-11-21T11:05:27;10.30;99.90
10702;DHT22;5402;50.004;8.246;2023-11-21T11:07:58;10.30;99.90
10702;DHT22;5402;50.004;8.246;2023-11-21T11:10:26;10.40;99.90
10702;DHT22;5402;50.004;8.246;2023-11-21T11:12:54;10.40;99.90
10702;DHT22;5402;50.004;8.246;2023-11-21T11:15:24;10.50;99.90
10702;DHT22;5402;50.004;8.246;2023-11-21T11:17:51;10.60;99.90
10702;DHT22;5402;50.004;8.246;2023-11-21T11:20:23;10.60;99.90
10702;DHT22;5402;50.004;8.246;2023-11-21T11:23:04;10.60;99.90
10702;DHT22;5402;50.004;8.246;2023-11-21T11:25:47;10.70;99.90
10702;DHT22;5402;50.004;8.246;2023-11-21T11:28:20;10.70;99.90
10702;DHT22;5402;50.004;8.246;2023-11-21T11:31:03;10.70;99.90
10702;DHT22;5402;50.004;8.246;2023-11-21T11:33:36;10.70;99.90
10702;DHT22;5402;50.004;8.246;2023-11-21T11:36:06;10.70;99.90
10702;DHT22;5402;50.004;8.246;2023-11-21T11:38:34;10.80;99.90
10702;DHT22;5402;50.004;8.246;2023-11-21T11:41:03;10.70;99.90
10702;DHT22;5402;50.004;8.246;2023-11-21T11:43:30;10.70;99.90
10702;DHT22;5402;50.004;8.246;2023-11-21T11:46:01;10.70;99.90
10702;DHT22;5402;50.004;8.246;2023-11-21T11:48:29;10.80;99.90
10702;DHT22;5402;50.004;8.246;2023-11-21T11:51:03;10.70;99.90
10702;DHT22;5402;50.004;8.246;2023-11-21T11:53:35;10.60;99.90
10702;DHT22;5402;50.004;8.246;2023-11-21T11:56:22;10.60;99.90
10702;DHT22;5402;50.004;8.246;2023-11-21T11:58:51;10.70;99.90
10702;DHT22;5402;50.004;8.246;2023-11-21T12:01:21;10.70;99.90
10702;DHT22;5402;50.004;8.246;2023-11-21T12:06:51;10.70;99.90
10702;DHT22;5402;50.004;8.246;2023-11-21T12:09:18;10.70;99.90
10702;DHT22;5402;50.004;8.246;2023-11-21T12:11:45;10.70;99.90
10702;DHT22;5402;50.004;8.246;2023-11-21T12:14:13;10.70;99.90
10702;DHT22;5402;50.004;8.246;2023-11-21T12:16:42;10.50;99.90
10702;DHT22;5402;50.004;8.246;2023-11-21T12:19:09;10.40;99.90
10702;DHT22;5402;50.004;8.246;2023-11-21T12:21:36;10.40;99.90
10702;DHT22;5402;50.004;8.246;2023-11-21T12:24:04;10.30;99.90
10702;DHT22;5402;50.004;8.246;2023-11-21T12:26:34;10.30;99.90
10702;DHT22;5402;50.004;8.246;2023-11-21T12:29:00;10.10;99.90
10702;DHT22;5402;50.004;8.246;2023-11-21T12:31:30;10.20;99.90
10702;DHT22;5402;50.004;8.246;2023-11-21T12:33:58;10.20;99.90
10702;DHT22;5402;50.004;8.246;2023-11-21T12:36:26;10.30;99.90
10702;DHT22;5402;50.004;8.246;2023-11-21T12:38:54;10.20;99.90
10702;DHT22;5402;50.004;8.246;2023-11-21T12:41:21;10.10;99.90
10702;DHT22;5402;50.004;8.246;2023-11-21T12:43:48;10.20;99.90
10702;DHT22;5402;50.004;8.246;2023-11-21T12:46:15;10.20;99.90
10702;DHT22;5402;50.004;8.246;2023-11-21T12:48:44;10.30;99.90
10702;DHT22;5402;50.004;8.246;2023-11-21T12:51:12;10.40;99.90
10702;DHT22;5402;50.004;8.246;2023-11-21T12:53:41;10.50;99.90
10702;DHT22;5402;50.004;8.246;2023-11-21T12:56:10;10.60;99.90
10702;DHT22;5402;50.004;8.246;2023-11-21T12:58:37;10.60;99.90
10702;DHT22;5402;50.004;8.246;2023-11-21T13:01:06;10.70;99.90
10702;DHT22;5402;50.004;8.246;2023-11-21T13:03:37;10.70;99.90
10702;DHT22;5402;50.004;8.246;2023-11-21T13:06:06;10.80;99.90
10702;DHT22;5402;50.004;8.246;2023-11-21T13:08:36;10.90;99.90
10702;DHT22;5402;50.004;8.246;2023-11-21T13:11:05;10.90;99.90
10702;DHT22;5402;50.004;8.246;2023-11-21T13:13:32;10.80;99.90
10702;DHT22;5402;50.004;8.246;2023-11-21T13:16:00;10.80;99.90
10702;DHT22;5402;50.004;8.246;2023-11-21T13:18:29;10.90;99.90
10702;DHT22;5402;50.004;8.246;2023-11-21T13:20:58;10.90;99.90
10702;DHT22;5402;50.004;8.246;2023-11-21T13:23:26;10.80;99.90
10702;DHT22;5402;50.004;8.246;2023-11-21T13:25:56;10.90;99.90
10702;DHT22;5402;50.004;8.246;2023-11-21T13:28:23;10.80;99.90
10702;DHT22;5402;50.004;8.246;2023-11-21T13:30:57;10.90;99.90
10702;DHT22;5402;50.004;8.246;2023-11-21T13:33:28;10.90;99.90
10702;DHT22;5402;50.004;8.246;2023-11-21T13:35:55;10.90;99.90
10702;DHT22;5402;50.004;8.246;2023-11-21T13:38:23;10.80;99.90
10702;DHT22;5402;50.004;8.246;2023-11-21T13:40:51;10.80;99.90
10702;DHT22;5402;50.004;8.246;2023-11-21T13:43:22;10.80;99.90
10702;DHT22;5402;50.004;8.246;2023-11-21T13:45:52;10.80;99.90
10702;DHT22;5402;50.004;8.246;2023-11-21T13:48:25;10.80;99.90
10702;DHT22;5402;50.004;8.246;2023-11-21T13:50:58;10.90;99.90
10702;DHT22;5402;50.004;8.246;2023-11-21T13:53:27;10.90;99.90
10702;DHT22;5402;50.004;8.246;2023-11-21T13:55:54;11.00;99.90
10702;DHT22;5402;50.004;8.246;2023-11-21T13:58:24;11.00;99.90
10702;DHT22;5402;50.004;8.246;2023-11-21T14:01:02;11.20;99.90
10702;DHT22;5402;50.004;8.246;2023-11-21T14:03:31;11.20;99.90
10702;DHT22;5402;50.004;8.246;2023-11-21T14:06:05;11.30;99.90
10702;DHT22;5402;50.004;8.246;2023-11-21T14:08:39;11.20;99.90
10702;DHT22;5402;50.004;8.246;2023-11-21T14:11:06;11.20;99.90
10702;DHT22;5402;50.004;8.246;2023-11-21T14:13:34;11.20;99.90
10702;DHT22;5402;50.004;8.246;2023-11-21T14:16:01;11.50;99.90
10702;DHT22;5402;50.004;8.246;2023-11-21T14:18:28;11.10;99.90
10702;DHT22;5402;50.004;8.246;2023-11-21T14:20:59;11.10;99.90
10702;DHT22;5402;50.004;8.246;2023-11-21T14:23:26;11.10;99.90
10702;DHT22;5402;50.004;8.246;2023-11-21T14:25:54;11.10;99.90
10702;DHT22;5402;50.004;8.246;2023-11-21T14:28:21;11.10;99.90
10702;DHT22;5402;50.004;8.246;2023-11-21T14:30:49;11.00;99.90
10702;DHT22;5402;50.004;8.246;2023-11-21T14:33:16;11.00;99.90
10702;DHT22;5402;50.004;8.246;2023-11-21T14:35:43;11.10;99.90
10702;DHT22;5402;50.004;8.246;2023-11-21T14:38:10;10.90;99.90
10702;DHT22;5402;50.004;8.246;2023-11-21T14:40:39;10.90;99.90
10702;DHT22;5402;50.004;8.246;2023-11-21T14:43:06;10.90;99.90
10702;DHT22;5402;50.004;8.246;2023-11-21T14:45:34;10.80;99.90
10702;DHT22;5402;50.004;8.246;2023-11-21T14:48:02;10.80;99.90
10702;DHT22;5402;50.004;8.246;2023-11-21T14:50:34;10.80;99.90
10702;DHT22;5402;50.004;8.246;2023-11-21T14:53:13;10.80;99.90
10702;DHT22;5402;50.004;8.246;2023-11-21T14:55:40;10.70;99.90
10702;DHT22;5402;50.004;8.246;2023-11-21T14:58:20;10.70;99.90
10702;DHT22;5402;50.004;8.246;2023-11-21T15:00:53;10.70;99.90
10702;DHT22;5402;50.004;8.246;2023-11-21T15:03:24;10.70;99.90
10702;DHT22;5402;50.004;8.246;2023-11-21T15:06:06;10.70;99.90
10702;DHT22;5402;50.004;8.246;2023-11-21T15:08:48;10.70;99.90
10702;DHT22;5402;50.004;8.246;2023-11-21T15:11:19;10.70;99.90
10702;DHT22;5402;50.004;8.246;2023-11-21T15:13:50;10.60;99.90
10702;DHT22;5402;50.004;8.246;2023-11-21T15:16:18;10.60;99.90
10702;DHT22;5402;50.004;8.246;2023-11-21T15:18:46;10.60;99.90
10702;DHT22;5402;50.004;8.246;2023-11-21T15:21:13;10.50;99.90
10702;DHT22;5402;50.004;8.246;2023-11-21T15:23:40;10.50;99.90
10702;DHT22;5402;50.004;8.246;2023-11-21T15:26:07;10.50;99.90
10702;DHT22;5402;50.004;8.246;2023-11-21T15:28:35;10.60;99.90
10702;DHT22;5402;50.004;8.246;2023-11-21T15:31:02;10.50;99.90
10702;DHT22;5402;50.004;8.246;2023-11-21T15:33:29;10.40;99.90
10702;DHT22;5402;50.004;8.246;2023-11-21T15:35:57;10.50;99.90
10702;DHT22;5402;50.004;8.246;2023-11-21T15:38:24;10.40;99.90
10702;DHT22;5402;50.004;8.246;2023-11-21T15:40:51;10.40;99.90
10702;DHT22;5402;50.004;8.246;2023-11-21T15:43:17;10.40;99.90
10702;DHT22;5402;50.004;8.246;2023-11-21T15:45:44;10.40;99.90
10702;DHT22;5402;50.004;8.246;2023-11-21T15:48:11;10.40;99.90
10702;DHT22;5402;50.004;8.246;2023-11-21T15:50:37;10.40;99.90
10702;DHT22;5402;50.004;8.246;2023-11-21T15:53:05;10.40;99.90
10702;DHT22;5402;50.004;8.246;2023-11-21T15:55:32;10.40;99.90
10702;DHT22;5402;50.004;8.246;2023-11-21T15:58:01;10.30;99.90
10702;DHT22;5402;50.004;8.246;2023-11-21T16:00:30;10.40;99.90
10702;DHT22;5402;50.004;8.246;2023-11-21T16:02:57;10.30;99.90
10702;DHT22;5402;50.004;8.246;2023-11-21T16:05:24;10.30;99.90